createdAt,value
2023-09-26T00:00:22.065Z,11.27
2023-09-26T00:02:49.806Z,9.37
2023-09-26T00:05:19.942Z,12.10
2023-09-26T00:07:50.577Z,11.50
2023-09-26T00:10:19.779Z,9.93
2023-09-26T00:12:48.158Z,12.40
2023-09-26T00:15:16.726Z,9.47
2023-09-26T00:17:45.271Z,13.17
2023-09-26T00:20:17.115Z,10.80
2023-09-26T00:22:44.819Z,9.93
2023-09-26T00:25:14.253Z,12.30
2023-09-26T00:27:42.044Z,11.27
2023-09-26T00:30:10.909Z,10.17
2023-09-26T00:32:40.034Z,11.10
2023-09-26T00:35:13.275Z,10.17
2023-09-26T00:37:42.300Z,8.43
2023-09-26T00:40:16.445Z,8.57
2023-09-26T00:42:46.257Z,10.17
2023-09-26T00:45:14.733Z,14.00
2023-09-26T00:47:43.417Z,8.87
2023-09-26T00:50:13.959Z,12.97
2023-09-26T00:52:43.424Z,10.43
2023-09-26T00:55:12.050Z,14.23
2023-09-26T00:57:41.761Z,12.03
2023-09-26T01:00:14.583Z,10.13
2023-09-26T01:02:42.729Z,9.67
2023-09-26T01:05:11.150Z,11.80
2023-09-26T01:07:40.411Z,8.40
2023-09-26T01:10:09.753Z,11.17
2023-09-26T01:12:39.631Z,8.47
2023-09-26T01:15:08.876Z,7.63
2023-09-26T01:17:37.620Z,11.10
2023-09-26T01:20:13.101Z,8.07
2023-09-26T01:22:45.449Z,10.93
2023-09-26T01:25:16.935Z,8.93
2023-09-26T01:27:45.008Z,9.70
2023-09-26T01:30:14.494Z,9.73
2023-09-26T01:32:42.344Z,14.87
2023-09-26T01:35:10.724Z,15.83
2023-09-26T01:37:39.080Z,13.23
2023-09-26T01:40:17.024Z,12.97
2023-09-26T01:42:46.532Z,15.43
2023-09-26T01:45:14.465Z,9.17
2023-09-26T01:47:47.697Z,11.10
2023-09-26T01:50:16.544Z,9.93
2023-09-26T01:52:45.023Z,12.10
2023-09-26T01:55:15.352Z,13.00
2023-09-26T01:57:43.328Z,15.70
2023-09-26T02:00:14.080Z,14.53
2023-09-26T02:02:43.040Z,11.80
2023-09-26T02:05:11.826Z,15.50
2023-09-26T02:07:39.956Z,14.73
2023-09-26T02:10:09.161Z,12.87
2023-09-26T02:12:38.722Z,11.80
2023-09-26T02:15:09.519Z,11.10
2023-09-26T02:17:39.060Z,13.37
2023-09-26T02:20:13.460Z,14.40
2023-09-26T02:22:43.047Z,15.43
2023-09-26T02:25:11.768Z,12.70
2023-09-26T02:27:39.757Z,11.83
2023-09-26T02:30:09.983Z,11.50
2023-09-26T02:32:40.157Z,8.67
2023-09-26T02:35:10.557Z,7.90
2023-09-26T02:37:39.942Z,8.27
2023-09-26T02:40:11.088Z,9.37
2023-09-26T02:42:39.924Z,10.03
2023-09-26T02:45:09.185Z,12.50
2023-09-26T02:47:37.145Z,11.53
2023-09-26T02:50:08.856Z,11.43
2023-09-26T02:52:36.638Z,10.80
2023-09-26T02:55:04.813Z,10.37
2023-09-26T02:57:35.261Z,12.23
2023-09-26T03:00:15.191Z,12.77
2023-09-26T03:02:43.433Z,11.60
2023-09-26T03:05:13.056Z,10.67
2023-09-26T03:07:41.516Z,13.17
2023-09-26T03:10:10.411Z,15.53
2023-09-26T03:12:38.332Z,10.90
2023-09-26T03:15:08.564Z,12.93
2023-09-26T03:17:36.790Z,13.10
2023-09-26T03:20:09.951Z,10.70
2023-09-26T03:22:39.408Z,11.27
2023-09-26T03:25:08.218Z,11.43
2023-09-26T03:27:36.329Z,10.30
2023-09-26T03:30:04.198Z,10.80
2023-09-26T03:32:32.326Z,16.50
2023-09-26T03:35:00.382Z,12.90
2023-09-26T03:37:28.151Z,15.27
2023-09-26T03:39:57.630Z,24.73
2023-09-26T03:42:25.717Z,17.03
2023-09-26T03:44:53.882Z,17.47
2023-09-26T03:47:21.889Z,14.87
2023-09-26T03:49:54.544Z,13.47
2023-09-26T03:52:22.558Z,15.60
2023-09-26T03:54:51.094Z,13.67
2023-09-26T03:57:20.604Z,12.63
2023-09-26T03:59:50.886Z,10.87
2023-09-26T04:02:19.784Z,20.70
2023-09-26T04:04:48.277Z,10.57
2023-09-26T04:07:16.545Z,15.00
2023-09-26T04:09:45.261Z,28.20
2023-09-26T04:12:13.619Z,31.73
2023-09-26T04:14:42.946Z,22.27
2023-09-26T04:17:11.209Z,17.33
2023-09-26T04:19:39.562Z,18.40
2023-09-26T04:22:07.730Z,12.20
2023-09-26T04:24:36.105Z,9.97
2023-09-26T04:27:04.171Z,13.27
2023-09-26T04:29:32.531Z,14.37
2023-09-26T04:32:02.065Z,10.30
2023-09-26T04:34:30.765Z,14.83
2023-09-26T04:36:58.935Z,19.17
2023-09-26T04:39:27.812Z,15.27
2023-09-26T04:41:56.195Z,12.20
2023-09-26T04:44:24.501Z,14.13
2023-09-26T04:46:53.427Z,14.77
2023-09-26T04:49:22.924Z,16.47
2023-09-26T04:51:51.560Z,12.90
2023-09-26T04:54:19.634Z,11.97
2023-09-26T04:56:48.322Z,12.77
2023-09-26T04:59:16.336Z,12.37
2023-09-26T05:01:47.049Z,14.40
2023-09-26T05:04:15.338Z,14.53
2023-09-26T05:06:45.192Z,10.63
2023-09-26T05:09:13.295Z,10.73
2023-09-26T05:11:41.779Z,11.00
2023-09-26T05:14:09.836Z,15.47
2023-09-26T05:16:37.934Z,18.67
2023-09-26T05:19:06.848Z,19.37
2023-09-26T05:21:35.315Z,14.23
2023-09-26T05:24:06.532Z,16.87
2023-09-26T05:26:34.787Z,11.50
2023-09-26T05:29:03.074Z,29.87
2023-09-26T05:31:33.442Z,14.83
2023-09-26T05:34:01.979Z,11.83
2023-09-26T05:36:30.389Z,13.80
2023-09-26T05:38:58.867Z,11.47
2023-09-26T05:41:28.738Z,12.83
2023-09-26T05:43:57.591Z,17.40
2023-09-26T05:46:25.956Z,17.20
2023-09-26T05:48:54.467Z,16.07
2023-09-26T05:51:22.811Z,13.83
2023-09-26T05:53:51.199Z,15.07
2023-09-26T05:56:19.767Z,9.97
2023-09-26T05:58:50.646Z,11.77
2023-09-26T06:01:19.700Z,14.63
2023-09-26T06:03:48.103Z,17.60
2023-09-26T06:06:16.534Z,14.10
2023-09-26T06:08:45.220Z,15.10
2023-09-26T06:11:13.713Z,13.70
2023-09-26T06:13:44.247Z,13.40
2023-09-26T06:16:14.181Z,14.33
2023-09-26T06:18:42.420Z,15.60
2023-09-26T06:21:10.564Z,16.27
2023-09-26T06:23:39.210Z,11.43
2023-09-26T06:26:07.506Z,11.10
2023-09-26T06:28:36.074Z,9.33
2023-09-26T06:31:08.403Z,9.90
2023-09-26T06:33:38.871Z,7.07
2023-09-26T06:36:13.174Z,8.70
2023-09-26T06:38:41.962Z,7.53
2023-09-26T06:41:10.752Z,5.70
2023-09-26T06:43:38.857Z,6.20
2023-09-26T06:46:08.144Z,9.10
2023-09-26T06:48:39.943Z,6.17
2023-09-26T06:51:09.590Z,6.30
2023-09-26T06:53:38.228Z,9.30
2023-09-26T06:56:07.921Z,6.23
2023-09-26T06:58:37.736Z,7.80
2023-09-26T07:01:13.356Z,6.57
2023-09-26T07:03:43.697Z,5.80
2023-09-26T07:06:13.465Z,8.87
2023-09-26T07:08:42.888Z,11.13
2023-09-26T07:11:11.767Z,5.33
2023-09-26T07:16:11.699Z,7.63
2023-09-26T07:18:40.412Z,6.00
2023-09-26T07:21:11.077Z,6.87
2023-09-26T07:23:42.389Z,5.43
2023-09-26T07:26:15.797Z,6.17
2023-09-26T07:28:45.868Z,4.30
2023-09-26T07:31:15.755Z,4.40
2023-09-26T07:33:44.655Z,4.70
2023-09-26T07:36:14.992Z,6.73
2023-09-26T07:38:46.462Z,6.07
2023-09-26T07:41:14.942Z,5.77
2023-09-26T07:43:43.377Z,5.90
2023-09-26T07:46:12.368Z,6.77
2023-09-26T07:48:41.545Z,6.90
2023-09-26T07:51:13.034Z,4.40
2023-09-26T07:53:45.683Z,5.87
2023-09-26T07:56:14.667Z,4.80
2023-09-26T07:58:43.106Z,12.73
2023-09-26T08:01:11.349Z,7.63
2023-09-26T08:03:40.886Z,4.70
2023-09-26T08:06:09.944Z,7.03
2023-09-26T08:08:39.275Z,6.43
2023-09-26T08:11:11.168Z,8.70
2023-09-26T08:13:41.898Z,6.77
2023-09-26T08:16:11.193Z,8.47
2023-09-26T08:18:39.563Z,5.07
2023-09-26T08:21:08.039Z,8.40
2023-09-26T08:23:36.523Z,8.20
2023-09-26T08:26:08.009Z,4.90
2023-09-26T08:28:38.023Z,4.73
2023-09-26T08:31:08.893Z,6.93
2023-09-26T08:33:37.408Z,3.97
2023-09-26T08:36:14.774Z,7.77
2023-09-26T08:38:43.189Z,7.97
2023-09-26T08:41:12.367Z,4.17
2023-09-26T08:43:41.868Z,7.53
2023-09-26T08:46:10.648Z,5.73
2023-09-26T08:48:40.827Z,5.43
2023-09-26T08:51:09.602Z,7.87
2023-09-26T08:53:37.790Z,6.30
2023-09-26T08:56:06.822Z,10.83
2023-09-26T08:58:36.082Z,7.23
2023-09-26T09:01:06.118Z,6.63
2023-09-26T09:03:34.803Z,7.93
2023-09-26T09:06:03.034Z,7.67
2023-09-26T09:08:31.464Z,8.17
2023-09-26T09:10:59.884Z,6.30
2023-09-26T09:13:30.804Z,9.67
2023-09-26T09:16:17.588Z,7.27
2023-09-26T09:18:48.278Z,7.70
2023-09-26T09:21:29.148Z,6.40
2023-09-26T09:23:59.009Z,6.17
2023-09-26T09:26:30.673Z,10.60
2023-09-26T09:29:00.561Z,7.03
2023-09-26T09:31:30.914Z,7.30
2023-09-26T09:34:00.612Z,13.63
2023-09-26T09:36:29.696Z,7.30
2023-09-26T09:38:58.437Z,8.47
2023-09-26T09:41:26.726Z,7.10
2023-09-26T09:43:55.369Z,6.30
2023-09-26T09:46:27.096Z,5.70
2023-09-26T09:49:00.964Z,11.00
2023-09-26T09:51:29.970Z,5.90
2023-09-26T09:54:01.410Z,6.40
2023-09-26T09:56:37.167Z,6.07
2023-09-26T09:59:07.351Z,9.60
2023-09-26T10:01:37.559Z,9.73
2023-09-26T10:04:09.254Z,11.20
2023-09-26T10:06:39.513Z,11.40
2023-09-26T10:09:08.949Z,9.33
2023-09-26T10:11:38.591Z,7.03
2023-09-26T10:14:07.175Z,8.10
2023-09-26T10:16:36.074Z,10.43
2023-09-26T10:19:05.621Z,8.10
2023-09-26T10:21:36.774Z,10.13
2023-09-26T10:24:30.915Z,7.03
2023-09-26T10:30:00.247Z,7.50
2023-09-26T10:32:38.312Z,9.20
2023-09-26T10:35:30.102Z,9.10
2023-09-26T10:38:12.091Z,7.20
2023-09-26T10:40:40.808Z,12.03
2023-09-26T10:45:59.017Z,7.30
2023-09-26T10:48:27.282Z,9.30
2023-09-26T10:50:56.550Z,10.17
2023-09-26T10:53:27.797Z,12.43
2023-09-26T10:55:56.820Z,8.13
2023-09-26T10:58:29.191Z,8.80
2023-09-26T11:00:59.716Z,10.87
2023-09-26T11:03:28.651Z,7.40
2023-09-26T11:05:57.749Z,10.60
2023-09-26T11:08:28.314Z,8.80
2023-09-26T11:10:56.860Z,12.00
2023-09-26T11:13:26.045Z,9.27
2023-09-26T11:15:54.965Z,9.50
2023-09-26T11:18:24.555Z,13.30
2023-09-26T11:21:02.711Z,7.57
2023-09-26T11:23:44.877Z,7.50
2023-09-26T11:26:13.971Z,8.50
2023-09-26T11:28:42.366Z,11.10
2023-09-26T11:31:11.122Z,10.33
2023-09-26T11:33:39.833Z,10.57
2023-09-26T11:36:09.148Z,12.23
2023-09-26T11:38:48.975Z,8.63
2023-09-26T11:41:17.545Z,7.20
2023-09-26T11:43:49.021Z,7.53
2023-09-26T11:46:18.347Z,9.97
2023-09-26T11:48:48.724Z,9.20
2023-09-26T11:51:17.109Z,9.60
2023-09-26T11:53:47.940Z,5.33
2023-09-26T11:56:16.026Z,9.23
2023-09-26T11:58:44.219Z,6.53
2023-09-26T12:01:14.775Z,6.13
2023-09-26T12:03:43.496Z,8.27
2023-09-26T12:06:11.657Z,7.87
2023-09-26T12:08:40.351Z,5.33
2023-09-26T12:11:09.830Z,11.00
2023-09-26T12:13:38.109Z,6.00
2023-09-26T12:16:07.297Z,9.13
2023-09-26T12:18:35.377Z,5.07
2023-09-26T12:21:05.445Z,7.00
2023-09-26T12:23:34.351Z,7.90
2023-09-26T12:26:02.704Z,9.30
2023-09-26T12:28:34.242Z,9.70
2023-09-26T12:31:03.182Z,5.80
2023-09-26T12:33:31.727Z,7.10
2023-09-26T12:36:00.630Z,8.40
2023-09-26T12:38:29.417Z,13.03
2023-09-26T12:40:57.931Z,6.47
2023-09-26T12:43:26.172Z,7.77
2023-09-26T12:45:56.220Z,11.17
2023-09-26T12:48:25.349Z,9.53
2023-09-26T12:50:53.807Z,9.20
2023-09-26T12:53:22.603Z,12.30
2023-09-26T12:55:50.825Z,13.47
2023-09-26T12:58:19.030Z,11.47
2023-09-26T13:00:47.718Z,8.80
2023-09-26T13:03:20.023Z,18.20
2023-09-26T13:05:48.470Z,6.73
2023-09-26T13:08:17.255Z,7.43
2023-09-26T13:10:45.368Z,7.83
2023-09-26T13:13:13.681Z,11.50
2023-09-26T13:15:42.364Z,10.97
2023-09-26T13:18:11.144Z,8.53
2023-09-26T13:20:40.740Z,8.40
2023-09-26T13:23:09.589Z,6.63
2023-09-26T13:25:37.775Z,13.00
2023-09-26T13:28:06.469Z,7.10
2023-09-26T13:30:36.438Z,7.77
2023-09-26T13:33:07.022Z,7.47
2023-09-26T13:35:35.669Z,6.83
2023-09-26T13:38:05.785Z,9.53
2023-09-26T13:40:34.279Z,8.80
2023-09-26T13:43:02.826Z,8.13
2023-09-26T13:45:30.974Z,7.37
2023-09-26T13:47:59.204Z,8.63
2023-09-26T13:50:27.778Z,7.90
2023-09-26T13:52:55.997Z,10.07
2023-09-26T13:55:27.498Z,9.50
2023-09-26T13:57:56.157Z,8.10
2023-09-26T14:00:24.367Z,6.90
2023-09-26T14:02:54.203Z,8.73
2023-09-26T14:05:24.752Z,8.23
2023-09-26T14:07:53.322Z,6.90
2023-09-26T14:10:23.959Z,8.03
2023-09-26T14:12:54.934Z,10.10
2023-09-26T14:15:23.708Z,8.37
2023-09-26T14:17:53.899Z,7.00
2023-09-26T14:20:23.119Z,5.33
2023-09-26T14:22:52.099Z,6.90
2023-09-26T14:25:21.075Z,11.00
2023-09-26T14:27:50.041Z,6.03
2023-09-26T14:30:20.405Z,5.53
2023-09-26T14:32:49.881Z,8.00
2023-09-26T14:35:18.627Z,5.27
2023-09-26T14:37:48.596Z,6.10
2023-09-26T14:40:16.856Z,8.60
2023-09-26T14:42:45.915Z,12.10
2023-09-26T14:45:15.154Z,8.80
2023-09-26T14:47:44.919Z,7.77
2023-09-26T14:50:13.428Z,6.80
2023-09-26T14:52:42.309Z,9.33
2023-09-26T14:55:10.845Z,6.47
2023-09-26T14:57:39.064Z,6.40
2023-09-26T15:00:10.584Z,7.30
2023-09-26T15:02:39.531Z,5.13
2023-09-26T15:05:10.141Z,6.63
2023-09-26T15:07:38.519Z,10.57
2023-09-26T15:10:09.483Z,6.13
2023-09-26T15:12:37.664Z,6.10
2023-09-26T15:15:07.015Z,7.70
2023-09-26T15:17:35.923Z,14.63
2023-09-26T15:20:05.081Z,6.47
2023-09-26T15:22:34.753Z,8.10
2023-09-26T15:25:04.049Z,10.03
2023-09-26T15:27:32.737Z,10.47
2023-09-26T15:30:01.155Z,7.10
2023-09-26T15:32:29.925Z,5.73
2023-09-26T15:34:59.038Z,5.40
2023-09-26T15:37:30.120Z,9.87
2023-09-26T15:40:02.077Z,6.97
2023-09-26T15:42:30.397Z,6.60
2023-09-26T15:44:59.188Z,5.80
2023-09-26T15:47:29.221Z,6.87
2023-09-26T15:49:57.548Z,7.07
2023-09-26T15:52:25.943Z,7.47
2023-09-26T15:54:54.377Z,11.40
2023-09-26T15:57:23.872Z,9.00
2023-09-26T15:59:52.621Z,8.93
2023-09-26T16:02:21.625Z,14.17
2023-09-26T16:04:50.466Z,14.10
2023-09-26T16:07:18.718Z,9.70
2023-09-26T16:09:46.970Z,10.00
2023-09-26T16:12:15.242Z,7.87
2023-09-26T16:14:44.901Z,9.50
2023-09-26T16:17:14.083Z,11.67
2023-09-26T16:19:42.595Z,9.53
2023-09-26T16:22:11.450Z,9.00
2023-09-26T16:24:40.533Z,9.23
2023-09-26T16:27:08.878Z,12.60
2023-09-26T16:29:37.075Z,9.90
2023-09-26T16:32:07.451Z,19.10
2023-09-26T16:34:35.700Z,15.37
2023-09-26T16:37:04.138Z,10.33
2023-09-26T16:39:32.877Z,12.40
2023-09-26T16:42:02.123Z,11.17
2023-09-26T16:44:30.442Z,6.80
2023-09-26T16:46:59.334Z,13.73
2023-09-26T16:49:28.965Z,11.43
2023-09-26T16:51:57.109Z,8.93
2023-09-26T16:54:25.860Z,11.13
2023-09-26T16:56:54.192Z,7.77
2023-09-26T16:59:22.479Z,12.67
2023-09-26T17:01:52.230Z,11.83
2023-09-26T17:04:21.681Z,9.10
2023-09-26T17:06:57.183Z,13.67
2023-09-26T17:09:25.697Z,13.67
2023-09-26T17:11:54.131Z,12.50
2023-09-26T17:14:25.423Z,12.53
2023-09-26T17:16:53.599Z,17.20
2023-09-26T17:19:21.843Z,14.97
2023-09-26T17:21:51.946Z,10.97
2023-09-26T17:24:20.579Z,13.30
2023-09-26T17:26:48.843Z,17.80
2023-09-26T17:29:17.457Z,13.47
2023-09-26T17:31:46.070Z,15.67
2023-09-26T17:34:14.325Z,17.23
2023-09-26T17:36:43.085Z,12.20
2023-09-26T17:39:13.408Z,14.50
2023-09-26T17:41:41.893Z,17.17
2023-09-26T17:44:11.312Z,15.50
2023-09-26T17:46:43.740Z,14.20
2023-09-26T17:49:12.920Z,13.27
2023-09-26T17:51:41.437Z,17.70
2023-09-26T17:54:09.576Z,10.50
2023-09-26T17:56:39.537Z,16.07
2023-09-26T17:59:07.737Z,17.70
2023-09-26T18:01:36.372Z,14.77
2023-09-26T18:04:04.970Z,17.90
2023-09-26T18:06:33.077Z,19.93
2023-09-26T18:09:01.633Z,13.17
2023-09-26T18:11:29.704Z,15.03
2023-09-26T18:13:59.133Z,15.10
2023-09-26T18:16:27.952Z,16.83
2023-09-26T18:18:56.241Z,17.40
2023-09-26T18:21:25.127Z,23.03
2023-09-26T18:23:55.625Z,15.80
2023-09-26T18:26:24.310Z,22.60
2023-09-26T18:28:52.448Z,22.00
2023-09-26T18:31:22.544Z,27.87
2023-09-26T18:33:50.671Z,22.07
2023-09-26T18:36:18.860Z,22.87
2023-09-26T18:38:47.396Z,16.10
2023-09-26T18:41:15.515Z,21.30
2023-09-26T18:43:43.695Z,22.27
2023-09-26T18:46:12.502Z,27.30
2023-09-26T18:48:41.997Z,24.10
2023-09-26T18:51:09.919Z,29.63
2023-09-26T18:53:38.521Z,23.83
2023-09-26T18:56:06.779Z,22.07
2023-09-26T18:58:34.944Z,24.90
2023-09-26T19:01:03.560Z,21.93
2023-09-26T19:03:31.809Z,21.40
2023-09-26T19:06:04.480Z,20.73
2023-09-26T19:08:32.853Z,27.40
2023-09-26T19:11:01.577Z,23.60
2023-09-26T19:13:30.237Z,19.53
2023-09-26T19:15:58.386Z,20.73
2023-09-26T19:18:26.572Z,22.20
2023-09-26T19:20:55.525Z,23.50
2023-09-26T19:23:24.990Z,21.23
2023-09-26T19:25:53.448Z,26.30
2023-09-26T19:28:22.898Z,19.50
2023-09-26T19:30:50.941Z,16.13
2023-09-26T19:33:19.805Z,16.80
2023-09-26T19:35:47.921Z,19.60
2023-09-26T19:38:16.791Z,21.67
2023-09-26T19:40:46.697Z,19.33
2023-09-26T19:43:14.728Z,13.70
2023-09-26T19:45:42.770Z,16.80
2023-09-26T19:48:11.946Z,19.20
2023-09-26T19:50:40.188Z,20.67
2023-09-26T19:53:08.252Z,25.23
2023-09-26T19:55:36.689Z,19.07
2023-09-26T19:58:06.496Z,19.37
2023-09-26T20:00:35.038Z,17.17
2023-09-26T20:03:03.487Z,17.33
2023-09-26T20:05:31.634Z,23.30
2023-09-26T20:08:00.228Z,20.13
2023-09-26T20:10:28.519Z,17.47
2023-09-26T20:12:56.864Z,18.93
2023-09-26T20:15:27.023Z,18.03
2023-09-26T20:17:55.369Z,22.43
2023-09-26T20:20:23.903Z,15.57
2023-09-26T20:22:52.161Z,14.50
2023-09-26T20:25:20.684Z,17.93
2023-09-26T20:27:52.128Z,18.80
2023-09-26T20:30:20.881Z,17.90
2023-09-26T20:32:50.544Z,17.17
2023-09-26T20:35:18.820Z,14.60
2023-09-26T20:37:47.144Z,19.13
2023-09-26T20:40:15.173Z,14.13
2023-09-26T20:42:43.212Z,19.67
2023-09-26T20:45:12.220Z,20.40
2023-09-26T20:47:40.284Z,26.90
2023-09-26T20:50:10.635Z,21.70
2023-09-26T20:52:38.667Z,19.90
2023-09-26T20:55:07.928Z,16.90
2023-09-26T20:57:36.056Z,18.37
2023-09-26T21:00:05.741Z,18.83
2023-09-26T21:02:34.741Z,20.77
2023-09-26T21:05:03.294Z,24.20
2023-09-26T21:07:33.316Z,23.73
2023-09-26T21:10:01.426Z,19.43
2023-09-26T21:12:29.607Z,21.23
2023-09-26T21:14:57.987Z,21.60
2023-09-26T21:17:25.981Z,16.77
2023-09-26T21:19:54.139Z,23.53
2023-09-26T21:22:22.659Z,24.23
2023-09-26T21:24:52.092Z,19.53
2023-09-26T21:27:20.155Z,20.13
2023-09-26T21:29:48.826Z,16.90
2023-09-26T21:32:17.344Z,16.40
2023-09-26T21:34:45.720Z,17.33
2023-09-26T21:37:13.809Z,17.23
2023-09-26T21:39:41.828Z,19.80
2023-09-26T21:42:11.261Z,21.97
2023-09-26T21:44:39.714Z,28.70
2023-09-26T21:47:07.890Z,23.27
2023-09-26T21:49:36.111Z,19.13
2023-09-26T21:52:04.563Z,19.30
2023-09-26T21:54:32.656Z,19.67
2023-09-26T21:57:03.847Z,15.93
2023-09-26T21:59:33.584Z,17.13
2023-09-26T22:02:02.036Z,18.80
2023-09-26T22:07:20.473Z,22.93
2023-09-26T22:09:48.516Z,20.87
2023-09-26T22:12:17.463Z,16.50
2023-09-26T22:14:47.238Z,20.57
2023-09-26T22:17:15.610Z,18.57
2023-09-26T22:19:44.308Z,18.73
2023-09-26T22:22:13.187Z,16.40
2023-09-26T22:24:41.655Z,20.60
2023-09-26T22:27:09.674Z,19.17
2023-09-26T22:29:37.803Z,17.83
2023-09-26T22:32:07.744Z,22.23
2023-09-26T22:34:37.616Z,18.87
2023-09-26T22:37:05.613Z,17.93
2023-09-26T22:39:34.484Z,22.67
2023-09-26T22:42:02.579Z,21.03
2023-09-26T22:44:32.206Z,19.07
2023-09-26T22:47:00.762Z,19.83
2023-09-26T22:49:30.309Z,20.77
2023-09-26T22:52:00.176Z,23.03
2023-09-26T22:54:28.436Z,14.70
2023-09-26T22:56:57.163Z,16.97
2023-09-26T22:59:26.309Z,19.87
2023-09-26T23:01:54.698Z,15.57
2023-09-26T23:04:23.190Z,20.20
2023-09-26T23:06:53.076Z,18.33
2023-09-26T23:09:21.073Z,18.47
2023-09-26T23:11:49.039Z,24.93
2023-09-26T23:14:17.332Z,15.60
2023-09-26T23:16:45.376Z,20.17
2023-09-26T23:19:13.367Z,18.50
2023-09-26T23:21:41.649Z,26.90
2023-09-26T23:24:11.533Z,20.30
2023-09-26T23:26:39.493Z,20.33
2023-09-26T23:29:08.115Z,18.10
2023-09-26T23:31:39.733Z,21.43
2023-09-26T23:34:07.902Z,19.27
2023-09-26T23:36:36.293Z,21.37
2023-09-26T23:39:07.130Z,17.40
2023-09-26T23:41:37.064Z,18.47
2023-09-26T23:44:08.397Z,20.60
2023-09-26T23:46:36.924Z,20.80
2023-09-26T23:49:05.034Z,22.10
2023-09-26T23:51:33.463Z,19.53
2023-09-26T23:54:01.490Z,20.47
2023-09-26T23:56:29.619Z,19.80
2023-09-26T23:58:59.446Z,22.77
